createdAt,value
2022-11-29T00:04:59.415Z,7.50
2022-11-29T00:10:01.175Z,7.40
2022-11-29T00:15:03.257Z,7.40
2022-11-29T00:20:05.936Z,7.30
2022-11-29T00:25:08.126Z,7.30
2022-11-29T00:30:10.248Z,7.20
2022-11-29T00:35:12.668Z,7.10
2022-11-29T00:40:14.453Z,7.20
2022-11-29T00:45:16.406Z,7.00
2022-11-29T00:50:18.322Z,7.00
2022-11-29T00:55:20.249Z,6.80
2022-11-29T01:00:22.056Z,7.00
2022-11-29T01:05:23.967Z,7.00
2022-11-29T01:10:26.200Z,7.10
2022-11-29T01:15:28.511Z,6.90
2022-11-29T01:20:30.439Z,6.70
2022-11-29T01:25:32.423Z,6.60
2022-11-29T01:30:34.394Z,6.50
2022-11-29T01:35:36.253Z,6.40
2022-11-29T01:40:38.022Z,6.40
2022-11-29T01:45:40.370Z,6.20
2022-11-29T01:50:43.126Z,6.40
2022-11-29T01:55:51.036Z,6.40
2022-11-29T02:00:52.973Z,6.40
2022-11-29T02:05:56.386Z,6.20
2022-11-29T02:11:07.189Z,6.10
2022-11-29T02:16:16.568Z,6.00
2022-11-29T02:21:24.204Z,5.90
2022-11-29T02:26:38.051Z,5.90
2022-11-29T02:31:55.015Z,5.80
2022-11-29T02:37:15.501Z,5.70
2022-11-29T02:42:26.240Z,5.60
2022-11-29T02:47:32.768Z,5.60
2022-11-29T02:52:43.412Z,5.80
2022-11-29T02:58:06.666Z,5.80
2022-11-29T03:03:37.008Z,5.90
2022-11-29T03:08:52.690Z,6.00
2022-11-29T03:14:17.449Z,6.00
2022-11-29T03:19:29.669Z,5.90
2022-11-29T03:24:37.419Z,5.90
2022-11-29T03:29:59.712Z,5.80
2022-11-29T03:35:11.801Z,5.90
2022-11-29T03:40:19.057Z,5.80
2022-11-29T03:45:25.141Z,5.70
2022-11-29T03:50:34.849Z,5.70
2022-11-29T03:56:01.795Z,5.70
2022-11-29T04:01:29.042Z,5.60
2022-11-29T04:07:05.425Z,5.50
2022-11-29T04:12:31.930Z,5.60
2022-11-29T04:17:33.829Z,5.50
2022-11-29T04:23:00.386Z,5.60
2022-11-29T04:28:20.854Z,5.50
2022-11-29T04:33:54.763Z,5.60
2022-11-29T04:39:23.666Z,5.80
2022-11-29T04:44:34.372Z,5.70
2022-11-29T04:49:36.100Z,5.80
2022-11-29T04:54:49.186Z,5.80
2022-11-29T05:00:09.961Z,6.00
2022-11-29T05:05:30.444Z,6.10
2022-11-29T05:10:50.471Z,6.00
2022-11-29T05:16:26.039Z,6.00
2022-11-29T05:21:39.545Z,6.10
2022-11-29T05:27:09.906Z,6.10
2022-11-29T05:32:29.772Z,6.20
2022-11-29T05:37:50.297Z,6.20
2022-11-29T05:43:08.902Z,6.20
2022-11-29T05:48:50.883Z,6.30
2022-11-29T05:54:24.054Z,6.30
2022-11-29T05:59:28.765Z,6.30
2022-11-29T06:05:09.115Z,6.40
2022-11-29T06:10:18.962Z,6.40
2022-11-29T06:15:48.652Z,6.40
2022-11-29T06:20:57.158Z,6.50
2022-11-29T06:26:29.164Z,6.40
2022-11-29T06:31:43.445Z,6.50
2022-11-29T06:36:51.736Z,6.50
2022-11-29T06:41:53.579Z,6.60
2022-11-29T06:47:08.976Z,6.60
2022-11-29T06:52:28.292Z,6.60
2022-11-29T06:58:32.846Z,6.60
2022-11-29T07:04:13.884Z,6.60
2022-11-29T07:09:21.913Z,6.60
2022-11-29T07:14:23.886Z,6.60
2022-11-29T07:19:45.940Z,6.60
2022-11-29T07:25:04.369Z,6.60
2022-11-29T07:30:41.519Z,6.60
2022-11-29T07:35:50.348Z,6.70
2022-11-29T07:41:00.859Z,6.70
2022-11-29T07:46:02.806Z,6.70
2022-11-29T07:51:04.804Z,6.70
2022-11-29T07:56:06.992Z,6.70
2022-11-29T08:01:09.049Z,6.70
2022-11-29T08:06:11.036Z,6.70
2022-11-29T08:11:13.291Z,6.80
2022-11-29T08:16:18.714Z,6.80
2022-11-29T08:21:20.668Z,6.90
2022-11-29T08:26:25.580Z,7.00
2022-11-29T08:31:30.029Z,7.00
2022-11-29T08:36:32.120Z,7.00
2022-11-29T08:41:34.116Z,7.10
2022-11-29T08:46:54.321Z,7.00
2022-11-29T08:52:16.262Z,7.10
2022-11-29T08:57:39.364Z,7.30
2022-11-29T09:02:39.960Z,7.30
2022-11-29T09:07:42.003Z,7.40
2022-11-29T09:12:44.828Z,7.50
2022-11-29T09:17:46.803Z,7.50
2022-11-29T09:22:48.543Z,7.60
2022-11-29T09:27:50.332Z,7.70
2022-11-29T09:32:52.083Z,7.70
2022-11-29T09:37:53.911Z,7.70
2022-11-29T09:43:04.497Z,7.70
2022-11-29T09:48:16.286Z,7.70
2022-11-29T09:53:29.897Z,7.70
2022-11-29T09:58:40.505Z,7.60
2022-11-29T10:03:46.469Z,7.60
2022-11-29T10:08:51.656Z,7.70
2022-11-29T10:13:59.963Z,7.80
2022-11-29T10:19:15.542Z,7.80
2022-11-29T10:24:21.165Z,7.90
2022-11-29T10:29:23.709Z,8.10
2022-11-29T10:34:27.078Z,8.20
2022-11-29T10:39:44.104Z,8.30
2022-11-29T10:44:46.029Z,8.20
2022-11-29T10:49:48.724Z,8.40
2022-11-29T10:54:55.808Z,8.30
2022-11-29T11:00:10.972Z,8.10
2022-11-29T11:05:19.481Z,8.20
2022-11-29T11:10:27.205Z,8.30
2022-11-29T11:15:31.586Z,8.40
2022-11-29T11:20:41.971Z,8.50
2022-11-29T11:25:45.730Z,8.70
2022-11-29T11:31:00.862Z,8.60
2022-11-29T11:36:29.131Z,8.60
2022-11-29T11:41:53.712Z,8.50
2022-11-29T11:46:56.135Z,8.50
2022-11-29T11:51:59.929Z,8.50
2022-11-29T11:57:01.699Z,8.50
2022-11-29T12:02:12.280Z,8.50
2022-11-29T12:07:45.155Z,8.70
2022-11-29T12:12:50.392Z,8.70
2022-11-29T12:18:06.778Z,8.90
2022-11-29T12:23:14.705Z,8.90
2022-11-29T12:28:20.646Z,8.80
2022-11-29T12:33:36.058Z,8.70
2022-11-29T12:38:59.774Z,8.70
2022-11-29T12:44:05.047Z,8.60
2022-11-29T12:49:23.636Z,8.80
2022-11-29T12:54:49.387Z,8.90
2022-11-29T13:00:20.914Z,9.00
2022-11-29T13:05:36.916Z,9.00
2022-11-29T13:10:44.527Z,8.90
2022-11-29T13:16:20.543Z,8.80
2022-11-29T13:21:43.992Z,8.80
2022-11-29T13:26:46.790Z,9.00
2022-11-29T13:31:49.691Z,9.20
2022-11-29T13:36:59.562Z,9.30
2022-11-29T13:42:31.069Z,9.30
2022-11-29T13:47:33.038Z,9.60
2022-11-29T13:52:40.768Z,9.40
2022-11-29T13:58:15.500Z,9.10
2022-11-29T14:03:22.045Z,9.00
2022-11-29T14:08:47.728Z,9.00
2022-11-29T14:14:03.316Z,9.00
2022-11-29T14:19:13.082Z,8.90
2022-11-29T14:24:33.277Z,8.70
2022-11-29T14:29:50.578Z,8.90
2022-11-29T14:35:06.613Z,8.90
2022-11-29T14:40:23.172Z,8.80
2022-11-29T14:45:31.555Z,8.80
2022-11-29T14:50:33.271Z,8.80
2022-11-29T14:55:38.682Z,8.80
2022-11-29T15:00:43.927Z,8.70
2022-11-29T15:05:56.219Z,8.70
2022-11-29T15:11:22.710Z,8.70
2022-11-29T15:16:37.262Z,8.60
2022-11-29T15:22:11.280Z,8.60
2022-11-29T15:27:13.296Z,8.60
2022-11-29T15:32:29.583Z,8.60
2022-11-29T15:37:34.116Z,8.60
2022-11-29T15:42:43.653Z,8.50
2022-11-29T15:47:45.402Z,8.50
2022-11-29T15:52:47.206Z,8.40
2022-11-29T15:57:53.723Z,8.40
2022-11-29T16:03:00.237Z,8.40
2022-11-29T16:08:06.033Z,8.40
2022-11-29T16:13:33.954Z,8.30
2022-11-29T16:18:37.646Z,8.30
2022-11-29T16:23:44.213Z,8.40
2022-11-29T16:28:48.767Z,8.30
2022-11-29T16:33:52.586Z,8.30
2022-11-29T16:39:01.383Z,8.10
2022-11-29T16:44:04.708Z,8.20
2022-11-29T16:49:36.125Z,8.10
2022-11-29T16:54:38.060Z,8.10
2022-11-29T16:59:40.002Z,8.10
2022-11-29T17:04:42.462Z,8.10
2022-11-29T17:09:44.716Z,8.00
2022-11-29T17:14:46.857Z,7.90
2022-11-29T17:19:48.873Z,7.80
2022-11-29T17:24:50.914Z,7.60
2022-11-29T17:29:52.863Z,7.40
2022-11-29T17:34:54.771Z,7.40
2022-11-29T17:39:57.038Z,7.30
2022-11-29T17:44:58.801Z,7.10
2022-11-29T17:50:00.591Z,7.00
2022-11-29T17:55:02.332Z,6.90
2022-11-29T18:00:06.895Z,6.70
2022-11-29T18:05:09.091Z,6.60
2022-11-29T18:10:11.044Z,6.60
2022-11-29T18:15:12.805Z,6.40
2022-11-29T18:20:14.761Z,6.40
2022-11-29T18:25:38.021Z,6.40
2022-11-29T18:30:38.477Z,6.30
2022-11-29T18:35:40.417Z,6.40
2022-11-29T18:40:45.124Z,6.30
2022-11-29T18:45:46.927Z,6.50
2022-11-29T18:50:48.911Z,6.70
2022-11-29T18:56:07.210Z,6.80
2022-11-29T19:01:17.781Z,6.90
2022-11-29T19:06:22.539Z,6.90
2022-11-29T19:11:27.511Z,6.90
2022-11-29T19:16:31.378Z,6.90
2022-11-29T19:21:34.737Z,6.80
2022-11-29T19:26:36.686Z,6.60
2022-11-29T19:31:39.700Z,6.50
2022-11-29T19:36:43.680Z,6.50
2022-11-29T19:41:47.775Z,6.40
2022-11-29T19:46:49.637Z,6.30
2022-11-29T19:51:51.528Z,6.30
2022-11-29T19:56:55.719Z,6.40
2022-11-29T20:01:59.590Z,6.40
2022-11-29T20:07:03.058Z,6.40
2022-11-29T20:12:11.942Z,6.50
2022-11-29T20:17:13.758Z,6.50
2022-11-29T20:22:15.986Z,6.50
2022-11-29T20:27:17.862Z,6.60
2022-11-29T20:32:20.106Z,6.70
2022-11-29T20:37:31.094Z,6.70
2022-11-29T20:42:48.004Z,6.70
2022-11-29T20:48:16.144Z,6.70
2022-11-29T20:53:38.171Z,6.80
2022-11-29T20:58:40.958Z,6.80
2022-11-29T21:03:42.740Z,6.80
2022-11-29T21:08:44.749Z,6.90
2022-11-29T21:13:47.690Z,6.90
2022-11-29T21:18:49.848Z,6.90
2022-11-29T21:24:10.109Z,6.90
2022-11-29T21:29:22.942Z,6.90
2022-11-29T21:34:24.808Z,6.80
2022-11-29T21:39:34.226Z,6.90
2022-11-29T21:44:36.087Z,6.90
2022-11-29T21:49:37.907Z,6.90
2022-11-29T21:54:40.486Z,6.80
2022-11-29T21:59:42.308Z,6.90
2022-11-29T22:04:44.200Z,6.90
2022-11-29T22:09:48.703Z,6.90
2022-11-29T22:14:50.898Z,6.90
2022-11-29T22:19:52.700Z,6.80
2022-11-29T22:24:54.448Z,6.70
2022-11-29T22:29:56.190Z,6.70
2022-11-29T22:34:58.089Z,6.80
2022-11-29T22:39:59.918Z,6.80
2022-11-29T22:45:04.116Z,6.70
2022-11-29T22:50:06.406Z,6.80
2022-11-29T22:55:08.628Z,6.90
2022-11-29T23:00:11.766Z,6.90
2022-11-29T23:05:13.531Z,6.90
2022-11-29T23:10:15.382Z,6.90
2022-11-29T23:15:17.321Z,6.90
2022-11-29T23:20:19.526Z,6.90
2022-11-29T23:25:21.307Z,6.90
2022-11-29T23:30:23.239Z,7.00
2022-11-29T23:35:25.007Z,6.90
2022-11-29T23:40:26.887Z,6.90
2022-11-29T23:45:28.933Z,6.90
2022-11-29T23:50:30.713Z,6.90
2022-11-29T23:55:32.468Z,6.80
